Time;durP1;ratioP1;P1;durP2;ratioP2;P2;SDS_P1;SDS_P2;PMS_P1;PMS_P2;Temp;Humidity;BMP_temperature;BMP_pressure;BME280_temperature;BME280_humidity;BME280_pressure;Samples;Min_cycle;Max_cycle;Signal;HPM_P1;HPM_P2
2022/06/29 00:02:01;;;;;;;2.83;0.82;;;22.40;94.40;;;;;;4999024;28;20053;-80
2022/06/29 00:04:26;;;;;;;2.30;0.88;;;22.30;94.50;;;;;;5033359;28;20029;-79
2022/06/29 00:06:52;;;;;;;1.40;0.70;;;22.30;94.70;;;;;;5024746;28;20029;-79
2022/06/29 00:09:18;;;;;;;4.68;1.13;;;22.30;95.10;;;;;;5011855;28;20236;-80
2022/06/29 00:11:43;;;;;;;2.35;0.80;;;22.30;95.30;;;;;;5027647;28;20037;-79
2022/06/29 00:14:09;;;;;;;2.75;0.80;;;22.30;95.50;;;;;;4998529;28;20036;-79
2022/06/29 00:16:34;;;;;;;1.23;0.70;;;22.20;95.10;;;;;;5026658;28;20057;-79
2022/06/29 00:19:00;;;;;;;5.47;0.80;;;22.10;95.60;;;;;;5012276;28;20547;-80
2022/06/29 00:21:26;;;;;;;1.10;0.70;;;22.10;95.60;;;;;;5025162;28;20032;-79
2022/06/29 00:23:51;;;;;;;1.02;0.70;;;22.10;95.80;;;;;;4998352;28;20448;-81
2022/06/29 00:26:18;;;;;;;1.35;0.85;;;22.10;96.10;;;;;;4995327;28;20033;-80
2022/06/29 00:28:44;;;;;;;3.00;0.80;;;22.10;96.10;;;;;;4998020;28;20022;-79
2022/06/29 00:31:09;;;;;;;3.83;1.00;;;22.10;96.00;;;;;;5006262;28;20466;-80
2022/06/29 00:33:35;;;;;;;2.33;0.90;;;22.10;96.50;;;;;;5001074;28;20117;-80
2022/06/29 00:36:01;;;;;;;2.55;0.90;;;22.10;96.90;;;;;;4996021;28;20061;-80
2022/06/29 00:38:26;;;;;;;4.85;1.00;;;22.10;97.00;;;;;;5010272;28;20463;-78
2022/06/29 00:40:52;;;;;;;2.97;0.90;;;22.10;96.90;;;;;;5004117;28;20079;-79
2022/06/29 00:43:17;;;;;;;4.28;1.20;;;22.10;98.00;;;;;;5002852;28;20026;-79
2022/06/29 00:45:43;;;;;;;6.10;1.20;;;22.00;99.60;;;;;;5010961;28;20079;-79
2022/06/29 00:48:09;;;;;;;3.88;1.20;;;22.00;99.90;;;;;;5015872;28;20474;-79
2022/06/29 00:50:37;;;;;;;1.13;1.02;;;22.00;99.90;;;;;;5008945;28;20414;-79
2022/06/29 00:53:05;;;;;;;2.10;1.10;;;22.00;99.90;;;;;;5005223;28;20030;-80
2022/06/29 00:55:35;;;;;;;1.25;1.10;;;22.00;99.90;;;;;;5018301;28;20026;-79
2022/06/29 00:58:05;;;;;;;3.03;1.15;;;22.00;99.90;;;;;;5007784;28;20052;-80
2022/06/29 01:00:31;;;;;;;2.92;1.00;;;21.90;98.70;;;;;;5032532;28;20119;-79
2022/06/29 01:02:59;;;;;;;2.60;0.80;;;21.90;99.20;;;;;;5015195;28;20025;-79
2022/06/29 01:05:26;;;;;;;2.88;1.08;;;21.90;99.70;;;;;;5001603;28;20116;-79
2022/06/29 01:07:52;;;;;;;4.32;0.95;;;21.90;98.70;;;;;;5011827;28;20034;-79
2022/06/29 01:10:19;;;;;;;4.15;1.00;;;21.90;99.60;;;;;;5019639;28;20028;-79
2022/06/29 01:12:47;;;;;;;6.80;1.30;;;21.80;99.40;;;;;;5028334;28;20022;-79
2022/06/29 01:15:13;;;;;;;4.20;1.10;;;21.80;98.40;;;;;;5027307;28;20022;-79
2022/06/29 01:17:38;;;;;;;3.85;1.00;;;21.80;98.60;;;;;;5021101;28;20037;-79
2022/06/29 01:20:05;;;;;;;2.22;0.90;;;21.80;98.10;;;;;;5032016;28;20029;-80
2022/06/29 01:22:30;;;;;;;2.00;0.90;;;21.80;97.90;;;;;;5004302;28;20053;-80
2022/06/29 01:24:56;;;;;;;1.23;0.60;;;21.80;98.00;;;;;;5035546;28;20110;-80
2022/06/29 01:27:24;;;;;;;4.88;1.10;;;21.70;98.50;;;;;;5030403;28;20046;-79
2022/06/29 01:29:50;;;;;;;4.25;1.00;;;21.70;99.50;;;;;;5021431;28;20036;-80
2022/06/29 01:32:16;;;;;;;4.65;1.40;;;21.70;99.90;;;;;;5055275;28;20377;-79
2022/06/29 01:34:42;;;;;;;3.05;1.02;;;21.70;99.90;;;;;;5048310;28;20024;-79
2022/06/29 01:37:08;;;;;;;2.45;1.27;;;21.70;99.90;;;;;;5045712;28;20043;-79
2022/06/29 01:39:35;;;;;;;1.98;1.10;;;21.70;99.90;;;;;;5037962;28;20458;-79
2022/06/29 01:42:01;;;;;;;7.22;1.55;;;21.70;99.90;;;;;;5038942;28;20032;-80
2022/06/29 01:44:27;;;;;;;3.90;1.30;;;21.70;99.90;;;;;;5037378;28;20024;-78
2022/06/29 01:46:53;;;;;;;1.90;1.02;;;21.70;99.90;;;;;;5029504;28;20035;-79
2022/06/29 01:55:17;;;;;;;1.73;1.30;;;21.70;99.90;;;;;;5309560;22;20063;-79
2022/06/29 01:57:42;;;;;;;5.32;1.42;;;21.70;99.90;;;;;;5035872;28;20037;-80
2022/06/29 02:00:08;;;;;;;1.92;1.20;;;21.60;99.90;;;;;;5034199;28;20029;-80
2022/06/29 02:02:34;;;;;;;3.38;1.20;;;21.60;99.90;;;;;;5034152;28;20056;-79
2022/06/29 02:05:00;;;;;;;2.60;1.10;;;21.60;99.90;;;;;;5034739;28;20060;-80
2022/06/29 02:07:26;;;;;;;2.53;1.20;;;21.60;99.90;;;;;;5035374;28;20029;-80
2022/06/29 02:09:51;;;;;;;2.42;1.15;;;21.60;99.90;;;;;;5034120;28;20025;-80
2022/06/29 02:12:17;;;;;;;2.22;1.20;;;21.50;99.90;;;;;;5033591;28;20026;-80
2022/06/29 02:14:43;;;;;;;4.82;1.17;;;21.60;99.90;;;;;;5034018;28;20380;-79
2022/06/29 02:17:08;;;;;;;2.17;1.30;;;21.60;99.90;;;;;;5033401;28;20026;-78
2022/06/29 02:34:49;;;;;;;2.05;1.08;;;21.60;99.90;;;;;;5015090;28;20397;-82
2022/06/29 02:37:15;;;;;;;3.22;1.00;;;21.50;99.90;;;;;;4997083;28;20474;-78
2022/06/29 02:39:42;;;;;;;2.85;1.10;;;21.60;99.90;;;;;;4993874;28;20042;-82
2022/06/29 02:42:09;;;;;;;3.65;1.15;;;21.60;99.90;;;;;;4989375;28;20030;-79
2022/06/29 02:44:35;;;;;;;1.98;1.20;;;21.50;99.90;;;;;;4997183;28;20057;-80
2022/06/29 02:47:01;;;;;;;4.82;1.40;;;21.50;99.90;;;;;;5014279;28;20029;-79
2022/06/29 02:49:26;;;;;;;2.13;1.10;;;21.50;99.90;;;;;;5018060;28;20033;-79
2022/06/29 02:51:52;;;;;;;3.10;1.10;;;21.50;99.90;;;;;;5003732;28;20510;-79
2022/06/29 02:54:18;;;;;;;3.65;1.20;;;21.40;99.90;;;;;;4993931;28;20026;-79
2022/06/29 02:56:43;;;;;;;4.88;1.70;;;21.50;99.90;;;;;;5012494;28;20068;-81
2022/06/29 02:59:09;;;;;;;2.63;1.23;;;21.40;99.90;;;;;;4997799;28;20026;-79
2022/06/29 03:01:35;;;;;;;2.60;1.30;;;21.50;99.90;;;;;;5014795;28;20458;-80
2022/06/29 03:04:00;;;;;;;2.72;1.40;;;21.50;99.90;;;;;;4997071;28;20045;-79
2022/06/29 03:06:26;;;;;;;1.90;1.42;;;21.40;99.90;;;;;;4999506;28;20116;-79
2022/06/29 03:08:52;;;;;;;3.10;1.50;;;21.30;99.90;;;;;;5023390;28;20030;-79
2022/06/29 03:11:17;;;;;;;3.40;1.45;;;21.30;99.90;;;;;;5005517;28;20053;-79
2022/06/29 03:13:43;;;;;;;3.17;1.40;;;21.40;99.90;;;;;;5016483;28;20037;-82
2022/06/29 03:16:08;;;;;;;2.50;1.58;;;21.40;99.90;;;;;;5014563;28;20112;-79
2022/06/29 03:18:34;;;;;;;3.35;1.38;;;21.40;99.90;;;;;;5014590;28;20431;-80
2022/06/29 03:21:00;;;;;;;5.35;1.48;;;21.30;99.90;;;;;;5013220;28;20823;-78
2022/06/29 03:23:26;;;;;;;4.40;1.65;;;21.40;99.90;;;;;;4997456;28;20029;-78
2022/06/29 03:25:51;;;;;;;1.77;1.30;;;21.40;99.90;;;;;;4996980;28;20029;-80
2022/06/29 03:28:17;;;;;;;3.63;1.35;;;21.40;99.90;;;;;;4997227;28;20057;-80
2022/06/29 03:30:42;;;;;;;3.03;1.38;;;21.30;99.90;;;;;;4996583;28;20132;-82
2022/06/29 03:33:08;;;;;;;1.60;1.27;;;21.40;99.90;;;;;;5014796;28;20383;-79
2022/06/29 03:35:34;;;;;;;3.15;1.17;;;21.30;99.90;;;;;;4997044;28;20117;-79
2022/06/29 03:37:59;;;;;;;1.77;1.13;;;21.30;99.90;;;;;;4996083;28;20474;-79
2022/06/29 03:40:25;;;;;;;2.08;1.40;;;21.30;99.90;;;;;;4996204;28;20147;-79
2022/06/29 03:42:51;;;;;;;2.38;1.20;;;21.30;99.90;;;;;;4996012;28;20393;-80
2022/06/29 03:45:17;;;;;;;1.20;0.90;;;21.30;99.90;;;;;;5013149;28;20029;-79
2022/06/29 03:47:43;;;;;;;2.30;1.00;;;21.30;99.90;;;;;;5012704;28;20409;-82
2022/06/29 03:50:09;;;;;;;2.53;1.35;;;21.20;99.90;;;;;;4996484;28;20037;-79
2022/06/29 03:52:35;;;;;;;5.68;1.25;;;21.20;99.90;;;;;;4996624;28;20022;-79
2022/06/29 03:55:01;;;;;;;2.42;1.10;;;21.20;99.90;;;;;;4996255;28;20034;-78
2022/06/29 03:57:26;;;;;;;2.28;1.20;;;21.20;99.90;;;;;;5014315;28;20113;-78
2022/06/29 03:59:52;;;;;;;7.13;1.20;;;21.20;99.90;;;;;;4996082;28;20033;-79
2022/06/29 04:02:17;;;;;;;2.10;1.25;;;21.20;99.90;;;;;;4996557;28;20022;-78
2022/06/29 04:04:43;;;;;;;1.40;1.10;;;21.20;99.90;;;;;;4996537;28;20356;-81
2022/06/29 04:07:09;;;;;;;2.80;1.30;;;21.10;99.90;;;;;;4996456;28;20056;-80
2022/06/29 04:09:34;;;;;;;3.80;1.20;;;21.20;99.90;;;;;;5012409;28;20029;-80
2022/06/29 04:12:00;;;;;;;2.35;1.13;;;21.20;99.90;;;;;;4995842;28;20033;-80
2022/06/29 04:14:28;;;;;;;3.60;0.90;;;21.20;99.90;;;;;;4995789;28;20022;-80
2022/06/29 04:16:56;;;;;;;2.58;1.02;;;21.20;99.90;;;;;;5013126;28;20026;-80
2022/06/29 04:19:22;;;;;;;6.28;1.10;;;21.10;99.90;;;;;;5013067;28;20030;-80
2022/06/29 04:21:48;;;;;;;2.58;1.10;;;21.00;99.90;;;;;;5008972;28;20113;-81
2022/06/29 04:24:14;;;;;;;3.78;1.10;;;21.00;99.90;;;;;;4995904;28;20029;-80
2022/06/29 04:26:40;;;;;;;3.53;1.15;;;21.00;99.90;;;;;;5013671;28;20030;-78
2022/06/29 04:29:06;;;;;;;5.25;1.05;;;20.90;99.90;;;;;;5013248;28;20057;-78
2022/06/29 04:31:32;;;;;;;2.63;1.08;;;20.90;99.90;;;;;;4995918;28;20053;-78
2022/06/29 04:33:59;;;;;;;2.35;1.10;;;20.90;99.90;;;;;;5013348;28;20032;-78
2022/06/29 04:36:24;;;;;;;4.03;0.90;;;21.00;99.90;;;;;;5012800;28;20463;-77
2022/06/29 04:38:50;;;;;;;2.25;0.80;;;20.90;99.90;;;;;;4995738;28;20041;-79
2022/06/29 04:41:16;;;;;;;1.67;1.00;;;20.90;99.90;;;;;;4993183;28;20027;-78
2022/06/29 04:43:42;;;;;;;1.70;1.08;;;20.90;99.90;;;;;;4997269;28;20540;-78
2022/06/29 04:46:19;;;;;;;1.75;1.02;;;20.90;99.90;;;;;;5015182;28;20794;-78
2022/06/29 04:48:46;;;;;;;1.88;0.73;;;21.00;99.90;;;;;;5030630;28;20033;-83
2022/06/29 04:51:11;;;;;;;1.08;0.80;;;21.00;99.90;;;;;;5000026;28;20521;-80
2022/06/29 04:53:37;;;;;;;2.08;0.70;;;21.00;99.90;;;;;;4999651;28;20034;-80
2022/06/29 04:56:03;;;;;;;3.17;0.82;;;21.00;99.80;;;;;;5016406;28;20029;-80
2022/06/29 04:58:29;;;;;;;2.03;1.00;;;21.00;99.70;;;;;;5016893;28;20034;-80
2022/06/29 05:00:54;;;;;;;1.88;1.10;;;21.00;99.60;;;;;;4999050;28;20044;-80
2022/06/29 05:03:20;;;;;;;3.25;1.25;;;21.00;99.60;;;;;;4999489;28;20026;-80
2022/06/29 05:05:47;;;;;;;2.38;1.02;;;21.10;99.90;;;;;;5016621;28;20033;-81
2022/06/29 05:08:14;;;;;;;2.58;1.00;;;21.20;99.60;;;;;;5016732;28;20034;-79
2022/06/29 05:10:41;;;;;;;2.33;0.90;;;21.20;99.50;;;;;;4999419;28;20089;-78
2022/06/29 05:13:09;;;;;;;2.55;1.00;;;21.20;99.80;;;;;;4998869;28;20096;-78
2022/06/29 05:15:35;;;;;;;4.65;1.02;;;21.20;99.90;;;;;;5016611;28;20025;-79
2022/06/29 05:18:01;;;;;;;2.70;1.08;;;21.20;99.90;;;;;;4998607;28;20175;-81
2022/06/29 05:20:27;;;;;;;1.77;1.08;;;21.20;99.90;;;;;;4999097;28;20064;-80
2022/06/29 05:22:52;;;;;;;4.93;1.02;;;21.20;99.90;;;;;;4998972;28;20026;-80
2022/06/29 05:25:18;;;;;;;3.63;1.30;;;21.10;99.90;;;;;;5015303;28;20032;-78
2022/06/29 05:27:44;;;;;;;4.68;1.20;;;21.20;99.90;;;;;;4999007;28;20026;-79
2022/06/29 05:30:10;;;;;;;6.88;1.58;;;21.10;99.90;;;;;;4998268;28;20066;-80
2022/06/29 05:32:36;;;;;;;4.55;1.70;;;21.20;99.90;;;;;;4998445;28;20029;-80
2022/06/29 05:35:02;;;;;;;2.30;1.17;;;21.20;99.60;;;;;;4996466;28;20088;-79
2022/06/29 05:37:27;;;;;;;2.03;1.35;;;21.10;99.40;;;;;;5004077;28;20034;-79
2022/06/29 05:39:53;;;;;;;1.98;1.20;;;21.10;99.50;;;;;;5018466;28;20591;-80
2022/06/29 05:42:18;;;;;;;2.15;1.30;;;21.10;99.50;;;;;;4998443;28;20026;-81
2022/06/29 05:44:44;;;;;;;6.20;1.60;;;21.10;99.70;;;;;;5014514;28;20030;-80
2022/06/29 05:47:10;;;;;;;5.28;1.40;;;21.10;99.80;;;;;;5001221;28;20518;-79
2022/06/29 05:49:36;;;;;;;2.60;1.13;;;21.20;99.70;;;;;;4998869;28;20378;-79
2022/06/29 05:52:05;;;;;;;3.38;1.38;;;21.20;99.50;;;;;;5014731;28;20029;-79
2022/06/29 05:54:31;;;;;;;2.55;1.40;;;21.20;99.40;;;;;;5014843;28;20494;-78
2022/06/29 05:56:56;;;;;;;1.42;1.20;;;21.30;98.80;;;;;;4997774;28;20026;-79
2022/06/29 05:59:22;;;;;;;5.47;1.15;;;21.30;98.80;;;;;;4998801;28;20030;-78
2022/06/29 06:01:48;;;;;;;2.53;1.15;;;21.30;98.70;;;;;;5005222;28;20497;-81
2022/06/29 06:04:13;;;;;;;1.88;1.02;;;21.30;98.30;;;;;;4995985;28;20026;-80
2022/06/29 06:06:39;;;;;;;2.58;0.95;;;21.30;98.40;;;;;;4981493;28;20026;-82
2022/06/29 06:09:05;;;;;;;4.85;1.20;;;21.30;98.30;;;;;;4994025;28;20057;-79
2022/06/29 06:11:30;;;;;;;4.28;1.30;;;21.30;98.50;;;;;;5016450;28;20030;-79
2022/06/29 06:13:56;;;;;;;2.88;1.40;;;21.40;98.10;;;;;;4994110;28;20034;-79
2022/06/29 06:16:21;;;;;;;1.90;1.00;;;21.40;98.00;;;;;;4996158;28;20026;-80
2022/06/29 06:18:47;;;;;;;2.08;1.10;;;21.40;98.10;;;;;;5013591;28;20498;-81
2022/06/29 06:21:13;;;;;;;4.30;1.38;;;21.40;98.40;;;;;;4997937;28;20030;-80
2022/06/29 06:23:39;;;;;;;3.72;1.70;;;21.40;98.60;;;;;;4998662;28;20026;-80
2022/06/29 06:26:04;;;;;;;5.90;1.52;;;21.40;98.70;;;;;;4997581;28;20088;-80
2022/06/29 06:28:30;;;;;;;5.28;1.60;;;21.40;98.80;;;;;;4998215;28;20056;-80
2022/06/29 06:30:56;;;;;;;4.15;1.58;;;21.40;99.10;;;;;;5014688;28;20125;-80
2022/06/29 06:33:22;;;;;;;3.00;1.73;;;21.50;99.20;;;;;;4984183;28;20026;-79
2022/06/29 06:35:49;;;;;;;5.75;1.70;;;21.60;99.30;;;;;;4994807;28;20034;-82
2022/06/29 06:38:15;;;;;;;5.10;1.65;;;21.60;99.40;;;;;;4996317;28;20037;-79
2022/06/29 06:43:26;;;;;;;4.90;1.80;;;21.70;99.90;;;;;;5008148;28;20041;-80
2022/06/29 06:45:51;;;;;;;2.58;1.48;;;21.70;99.80;;;;;;4996903;28;20026;-84
2022/06/29 06:48:17;;;;;;;4.50;1.92;;;21.80;99.80;;;;;;5004969;28;20036;-79
2022/06/29 06:50:43;;;;;;;3.13;1.85;;;21.80;99.90;;;;;;4997737;28;20032;-79
2022/06/29 06:53:09;;;;;;;2.80;1.33;;;21.80;99.90;;;;;;5005682;28;20026;-80
2022/06/29 06:55:34;;;;;;;4.93;1.67;;;21.80;99.90;;;;;;4997327;28;20026;-79
2022/06/29 06:58:01;;;;;;;5.18;1.60;;;21.80;99.90;;;;;;5013929;28;20132;-80
2022/06/29 07:00:28;;;;;;;2.33;1.63;;;21.90;99.90;;;;;;4996807;28;20462;-80
2022/06/29 07:02:54;;;;;;;4.28;2.00;;;21.90;99.90;;;;;;5004083;28;20026;-80
2022/06/29 07:05:19;;;;;;;3.38;2.00;;;22.00;99.90;;;;;;5007268;28;20037;-79
2022/06/29 07:07:45;;;;;;;6.28;2.08;;;22.00;99.90;;;;;;5013112;28;20149;-81
2022/06/29 07:10:11;;;;;;;1.80;1.60;;;21.90;99.90;;;;;;4995550;28;20030;-81
2022/06/29 07:12:37;;;;;;;5.00;2.03;;;21.90;99.90;;;;;;4994911;28;20034;-80
2022/06/29 07:15:03;;;;;;;3.65;2.30;;;22.00;99.90;;;;;;4995447;28;20117;-80
2022/06/29 07:17:29;;;;;;;4.53;1.60;;;22.10;99.90;;;;;;5006651;28;20038;-79
2022/06/29 07:19:55;;;;;;;5.07;2.30;;;22.10;99.90;;;;;;4987076;28;20038;-80
2022/06/29 07:22:20;;;;;;;2.47;1.50;;;22.10;99.90;;;;;;5008636;28;20026;-81
2022/06/29 07:24:46;;;;;;;3.33;1.70;;;22.10;99.90;;;;;;4994189;28;20026;-80
2022/06/29 07:27:12;;;;;;;3.58;2.30;;;22.10;99.90;;;;;;4992879;28;20043;-79
2022/06/29 07:29:38;;;;;;;3.53;1.90;;;22.10;99.90;;;;;;4996006;28;20372;-80
2022/06/29 07:32:04;;;;;;;4.95;2.22;;;22.10;99.90;;;;;;5010233;28;20078;-79
2022/06/29 07:34:30;;;;;;;2.42;1.98;;;22.10;99.90;;;;;;4994391;28;20109;-79
2022/06/29 07:36:56;;;;;;;5.85;2.30;;;22.20;99.90;;;;;;4991887;28;20030;-80
2022/06/29 07:39:21;;;;;;;2.38;2.15;;;22.20;99.90;;;;;;5007079;28;20038;-80
2022/06/29 07:41:47;;;;;;;3.50;2.00;;;22.20;99.90;;;;;;5006880;28;20024;-80
2022/06/29 07:44:13;;;;;;;3.65;2.20;;;22.30;99.90;;;;;;5021852;28;20022;-79
2022/06/29 07:46:38;;;;;;;4.88;2.35;;;22.40;99.90;;;;;;5006732;28;20034;-80
2022/06/29 07:49:04;;;;;;;3.17;2.10;;;22.60;99.90;;;;;;4995436;28;20532;-80
2022/06/29 07:51:30;;;;;;;4.10;1.95;;;22.60;99.90;;;;;;4996020;28;20037;-80
2022/06/29 07:53:55;;;;;;;4.82;1.70;;;22.70;99.90;;;;;;5004451;28;20383;-80
2022/06/29 07:56:21;;;;;;;3.65;2.05;;;22.80;99.90;;;;;;4994102;28;20459;-79
2022/06/29 07:58:47;;;;;;;3.13;2.20;;;22.90;99.90;;;;;;4985735;28;20030;-80
2022/06/29 08:01:12;;;;;;;3.95;2.33;;;22.90;99.90;;;;;;4995364;28;20398;-80
2022/06/29 08:03:38;;;;;;;4.97;2.38;;;22.90;99.90;;;;;;5006484;28;20382;-80
2022/06/29 08:06:07;;;;;;;4.68;2.28;;;22.90;99.90;;;;;;5003424;28;20232;-80
2022/06/29 08:08:32;;;;;;;6.97;2.15;;;23.00;99.90;;;;;;5013049;28;20105;-79
2022/06/29 08:10:58;;;;;;;5.13;2.35;;;23.10;99.90;;;;;;4995161;28;20104;-80
2022/06/29 08:13:24;;;;;;;3.50;2.25;;;23.10;99.90;;;;;;4999727;28;20025;-79
2022/06/29 08:15:50;;;;;;;4.28;2.15;;;23.20;99.90;;;;;;4986307;28;20033;-83
2022/06/29 08:18:16;;;;;;;7.63;2.53;;;23.20;99.90;;;;;;4996427;28;20081;-79
2022/06/29 08:20:43;;;;;;;6.68;2.40;;;23.30;99.90;;;;;;5001013;28;20042;-80
2022/06/29 08:23:09;;;;;;;8.63;2.30;;;23.30;99.90;;;;;;4999382;28;20049;-79
2022/06/29 08:25:35;;;;;;;3.88;2.42;;;23.50;99.90;;;;;;5017122;28;20022;-80
2022/06/29 08:28:01;;;;;;;4.88;2.40;;;23.60;99.90;;;;;;4998587;28;20054;-79
2022/06/29 08:30:27;;;;;;;3.13;2.53;;;23.70;99.90;;;;;;4994879;28;20131;-80
2022/06/29 08:32:52;;;;;;;7.50;2.55;;;23.80;99.90;;;;;;4998450;28;20466;-80
2022/06/29 08:35:18;;;;;;;2.85;2.20;;;23.90;99.90;;;;;;5010248;28;20105;-81
2022/06/29 08:37:46;;;;;;;3.58;2.15;;;23.90;99.90;;;;;;4999152;28;20124;-80
2022/06/29 08:40:14;;;;;;;3.55;2.15;;;24.00;99.90;;;;;;4999101;28;20100;-80
2022/06/29 08:42:40;;;;;;;2.92;2.17;;;24.10;99.90;;;;;;4999396;28;20026;-81
2022/06/29 08:45:10;;;;;;;5.72;2.15;;;24.20;99.90;;;;;;4998867;28;20030;-79
2022/06/29 08:47:37;;;;;;;3.20;2.30;;;24.20;99.90;;;;;;4999399;28;20125;-82
2022/06/29 08:50:07;;;;;;;6.97;2.90;;;24.20;99.90;;;;;;5021127;28;20081;-81
2022/06/29 08:52:37;;;;;;;3.38;2.95;;;24.20;99.90;;;;;;4999531;28;20381;-83
2022/06/29 08:55:05;;;;;;;5.30;2.78;;;24.30;99.90;;;;;;4998837;28;20562;-82
2022/06/29 08:57:31;;;;;;;2.80;2.33;;;24.30;99.90;;;;;;4999372;28;20061;-82
2022/06/29 08:59:57;;;;;;;3.25;2.35;;;24.30;99.90;;;;;;4999152;28;20030;-82
2022/06/29 09:02:23;;;;;;;2.50;2.17;;;24.50;99.90;;;;;;5007360;28;20026;-82
2022/06/29 09:04:49;;;;;;;5.75;2.00;;;24.50;99.80;;;;;;4999317;28;20360;-84
2022/06/29 09:07:15;;;;;;;2.78;1.92;;;24.50;99.00;;;;;;4998943;28;20037;-82
2022/06/29 09:10:00;;;;;;;5.38;2.40;;;24.50;99.50;;;;;;5017992;28;20022;-82
2022/06/29 09:12:28;;;;;;;6.50;3.05;;;24.30;99.50;;;;;;4994753;28;20022;-81
2022/06/29 09:14:53;;;;;;;6.30;2.60;;;24.10;99.60;;;;;;5017996;28;20400;-83
2022/06/29 09:17:19;;;;;;;5.60;2.58;;;24.10;99.90;;;;;;4998921;28;20029;-81
2022/06/29 09:19:47;;;;;;;5.28;2.70;;;24.00;99.90;;;;;;5016108;28;20030;-82
2022/06/29 09:22:13;;;;;;;4.88;2.60;;;23.90;99.90;;;;;;4998608;28;20164;-82
2022/06/29 09:24:39;;;;;;;3.40;2.60;;;23.90;99.90;;;;;;4998829;28;20104;-83
2022/06/29 09:27:07;;;;;;;3.92;2.35;;;23.90;99.90;;;;;;4998178;28;20034;-82
2022/06/29 09:29:44;;;;;;;4.40;2.35;;;23.90;99.90;;;;;;4998711;28;20113;-82
2022/06/29 09:32:19;;;;;;;4.15;2.17;;;24.10;99.90;;;;;;4998032;28;20490;-82
2022/06/29 09:34:50;;;;;;;2.60;2.25;;;24.20;99.90;;;;;;4998613;28;20466;-81
2022/06/29 09:37:16;;;;;;;3.90;2.20;;;24.20;99.60;;;;;;4992953;28;20141;-81
2022/06/29 09:39:49;;;;;;;2.45;2.20;;;24.20;99.30;;;;;;4998703;28;20125;-81
2022/06/29 09:42:17;;;;;;;3.28;2.20;;;24.20;99.00;;;;;;4994403;28;20029;-81
2022/06/29 09:44:44;;;;;;;3.08;2.17;;;24.20;98.50;;;;;;4987020;28;20026;-81
2022/06/29 09:47:19;;;;;;;6.85;2.10;;;24.20;98.50;;;;;;4998703;28;20026;-82
2022/06/29 09:49:59;;;;;;;2.78;2.33;;;24.30;98.40;;;;;;5016400;28;20035;-82
2022/06/29 09:52:26;;;;;;;5.07;2.35;;;24.40;98.80;;;;;;4998857;28;20061;-82
2022/06/29 09:54:54;;;;;;;2.97;2.08;;;24.40;98.90;;;;;;5015603;28;20034;-85
2022/06/29 09:57:23;;;;;;;4.00;2.03;;;24.50;98.90;;;;;;5016336;28;20030;-82
2022/06/29 10:02:39;;;;;;;5.50;2.10;;;24.70;99.00;;;;;;5013242;28;20115;-82
2022/06/29 10:05:13;;;;;;;4.75;2.05;;;24.70;98.90;;;;;;4993171;28;20028;-82
2022/06/29 10:07:52;;;;;;;3.13;2.10;;;24.80;98.70;;;;;;4998169;28;20034;-84
2022/06/29 10:10:26;;;;;;;4.10;2.35;;;24.80;99.00;;;;;;5013877;28;20036;-85
2022/06/29 10:15:57;;;;;;;4.00;2.33;;;24.90;98.10;;;;;;5015298;28;20036;-85
2022/06/29 10:18:54;;;;;;;3.97;2.25;;;24.90;98.40;;;;;;4994564;28;20034;-82
2022/06/29 10:21:23;;;;;;;2.75;2.20;;;24.90;98.80;;;;;;5001411;28;20490;-85
2022/06/29 10:24:02;;;;;;;4.35;2.40;;;25.00;97.20;;;;;;4996958;28;20049;-87
2022/06/29 10:26:32;;;;;;;2.88;2.20;;;24.90;97.90;;;;;;4992959;28;20029;-84
2022/06/29 10:29:09;;;;;;;5.25;2.13;;;25.00;98.10;;;;;;4995081;28;20026;-84
2022/06/29 10:32:08;;;;;;;2.75;2.38;;;25.10;97.50;;;;;;4997151;28;20073;-84
2022/06/29 10:34:34;;;;;;;3.97;2.05;;;25.10;97.40;;;;;;4991076;28;20037;-85
2022/06/29 10:37:04;;;;;;;3.67;2.38;;;25.20;97.40;;;;;;4998868;28;20463;-84
2022/06/29 10:39:45;;;;;;;4.03;2.50;;;25.20;97.00;;;;;;4989763;28;20374;-84
2022/06/29 10:45:13;;;;;;;6.07;2.28;;;25.30;97.50;;;;;;4995520;28;20498;-85
2022/06/29 10:47:39;;;;;;;3.40;1.92;;;25.40;97.30;;;;;;4978913;28;20085;-85
2022/06/29 10:50:14;;;;;;;3.17;1.90;;;25.40;96.70;;;;;;4995353;28;20026;-86
2022/06/29 10:52:40;;;;;;;3.55;2.08;;;25.50;97.00;;;;;;4998980;28;20459;-85
2022/06/29 10:55:09;;;;;;;2.28;2.08;;;25.70;97.00;;;;;;5014531;28;20057;-85
2022/06/29 10:57:39;;;;;;;3.58;2.17;;;25.50;96.50;;;;;;4997336;28;20034;-85
2022/06/29 11:00:10;;;;;;;2.20;1.90;;;25.30;97.40;;;;;;4997047;28;20477;-85
2022/06/29 11:02:37;;;;;;;2.63;1.90;;;25.30;97.50;;;;;;4994673;28;20031;-85
2022/06/29 11:05:03;;;;;;;3.70;2.10;;;25.20;97.80;;;;;;5005363;28;20099;-86
2022/06/29 11:12:01;;;;;;;7.35;2.38;;;25.10;97.60;;;;;;5009440;28;20076;-85
2022/06/29 11:13:26;;;;;;;3.15;2.30;;;25.10;97.90;;;;;;5013682;28;20025;-85
2022/06/29 11:15:54;;;;;;;2.72;2.03;;;25.10;98.20;;;;;;5005927;28;20037;-86
2022/06/29 11:18:30;;;;;;;2.63;2.00;;;25.10;97.80;;;;;;4991779;28;20026;-85
2022/06/29 11:21:04;;;;;;;4.10;2.83;;;25.10;97.90;;;;;;4993137;28;20027;-85
2022/06/29 11:23:35;;;;;;;4.72;3.08;;;25.20;98.10;;;;;;4991610;28;20026;-85
2022/06/29 11:26:02;;;;;;;3.67;2.25;;;25.30;98.60;;;;;;5013499;28;20036;-85
2022/06/29 11:28:30;;;;;;;2.90;2.08;;;25.20;97.50;;;;;;4993260;28;20026;-85
2022/06/29 11:31:02;;;;;;;3.28;2.30;;;25.30;97.90;;;;;;4992306;28;20050;-86
2022/06/29 11:33:33;;;;;;;3.25;2.40;;;25.40;97.50;;;;;;5001006;28;20030;-85
2022/06/29 11:36:10;;;;;;;3.60;2.50;;;25.40;97.90;;;;;;4992694;28;20030;-85
2022/06/29 11:38:41;;;;;;;3.67;2.88;;;25.40;97.10;;;;;;5019596;28;20061;-86
2022/06/29 11:41:24;;;;;;;4.13;2.30;;;25.40;96.50;;;;;;5006790;28;20034;-86
2022/06/29 11:44:05;;;;;;;4.65;1.90;;;25.40;95.70;;;;;;4994976;28;20030;-85
2022/06/29 11:46:35;;;;;;;5.00;2.38;;;25.40;95.80;;;;;;4992837;28;20022;-86
2022/06/29 11:51:59;;;;;;;2.40;2.20;;;25.50;95.50;;;;;;5006835;28;20095;-86
2022/06/29 11:54:41;;;;;;;3.30;2.00;;;25.50;95.00;;;;;;4991666;28;20469;-86
2022/06/29 11:57:14;;;;;;;2.60;2.08;;;25.60;94.30;;;;;;4998169;28;20030;-85
2022/06/29 11:59:40;;;;;;;2.83;2.30;;;25.70;94.20;;;;;;5005869;28;20022;-85
2022/06/29 12:02:07;;;;;;;2.78;1.92;;;25.70;93.70;;;;;;4992589;28;20026;-86
2022/06/29 12:04:35;;;;;;;5.22;2.55;;;25.70;93.50;;;;;;4986260;28;20030;-86
2022/06/29 12:07:07;;;;;;;12.13;5.75;;;25.80;93.30;;;;;;4995346;28;20053;-85
2022/06/29 12:09:34;;;;;;;11.80;5.28;;;25.80;92.90;;;;;;4996322;28;20030;-85
2022/06/29 12:12:00;;;;;;;12.65;5.07;;;25.90;93.40;;;;;;4993594;28;20022;-86
2022/06/29 12:14:26;;;;;;;19.92;6.53;;;25.90;91.90;;;;;;4991852;28;20018;-85
2022/06/29 12:16:51;;;;;;;14.85;4.70;;;26.00;92.10;;;;;;4992845;28;20022;-85
2022/06/29 12:19:17;;;;;;;8.07;3.58;;;26.10;92.00;;;;;;5005391;28;20125;-85
2022/06/29 12:21:43;;;;;;;4.97;2.90;;;26.30;91.60;;;;;;4986681;28;20023;-85
2022/06/29 12:24:09;;;;;;;6.85;3.05;;;26.40;91.80;;;;;;4991915;28;20117;-86
2022/06/29 12:26:35;;;;;;;4.82;2.95;;;26.40;91.50;;;;;;4995318;28;20111;-86
2022/06/29 12:29:00;;;;;;;3.53;2.03;;;26.40;90.50;;;;;;4988835;28;20053;-85
2022/06/29 12:31:26;;;;;;;2.95;2.03;;;26.40;91.30;;;;;;4995606;28;20081;-85
2022/06/29 12:33:52;;;;;;;3.08;2.10;;;26.50;91.20;;;;;;4996062;28;20030;-87
2022/06/29 12:36:17;;;;;;;3.00;2.00;;;26.70;91.40;;;;;;4979806;28;20064;-84
2022/06/29 12:38:43;;;;;;;5.10;2.22;;;26.80;91.50;;;;;;4992829;28;20026;-86
2022/06/29 12:41:09;;;;;;;2.42;1.80;;;26.90;91.50;;;;;;4990700;28;20038;-85
2022/06/29 12:43:34;;;;;;;6.07;2.20;;;26.90;90.40;;;;;;4978487;28;20121;-85
2022/06/29 12:46:01;;;;;;;3.63;2.92;;;26.80;89.90;;;;;;4983910;28;20526;-86
2022/06/29 12:48:27;;;;;;;4.43;2.00;;;26.90;90.00;;;;;;5012919;28;20030;-86
2022/06/29 12:50:53;;;;;;;2.35;1.98;;;27.00;90.30;;;;;;4992597;28;20383;-86
2022/06/29 12:53:19;;;;;;;2.05;1.70;;;27.20;90.10;;;;;;5013003;28;20018;-86
2022/06/29 12:55:45;;;;;;;3.38;2.08;;;27.40;88.90;;;;;;4995473;28;20022;-86
2022/06/29 12:58:10;;;;;;;3.60;1.98;;;27.40;87.40;;;;;;5012332;28;20041;-85
2022/06/29 13:00:37;;;;;;;3.17;1.98;;;27.50;87.80;;;;;;5012626;28;20471;-86
2022/06/29 13:03:02;;;;;;;3.35;1.70;;;27.60;87.70;;;;;;4995145;28;20041;-86
2022/06/29 13:05:28;;;;;;;2.22;1.90;;;27.70;86.70;;;;;;5015291;28;20018;-86
2022/06/29 13:07:54;;;;;;;2.05;1.90;;;27.60;86.70;;;;;;4998086;28;20030;-86
2022/06/29 13:10:19;;;;;;;2.10;1.90;;;27.70;87.00;;;;;;4998210;28;20025;-85
2022/06/29 13:12:45;;;;;;;2.88;1.75;;;27.90;87.40;;;;;;5019202;28;20061;-86
2022/06/29 13:15:11;;;;;;;4.05;1.70;;;28.00;87.40;;;;;;5016053;28;20492;-86
2022/06/29 13:17:36;;;;;;;2.97;1.67;;;28.30;86.70;;;;;;5017696;28;20030;-86
2022/06/29 13:20:06;;;;;;;2.10;1.90;;;28.60;85.00;;;;;;4996136;28;20113;-86
2022/06/29 13:22:32;;;;;;;1.73;1.63;;;28.80;84.60;;;;;;4995573;28;20092;-86
2022/06/29 13:24:57;;;;;;;4.43;1.90;;;28.90;82.70;;;;;;4984898;28;20026;-86